createdAt,value
2018-08-20T00:00:48.471Z,6.70
2018-08-20T00:03:15.832Z,6.90
2018-08-20T00:05:47.737Z,5.13
2018-08-20T00:08:15.147Z,6.07
2018-08-20T00:10:42.512Z,5.90
2018-08-20T00:13:09.867Z,5.33
2018-08-20T00:15:37.234Z,6.17
2018-08-20T00:18:04.570Z,6.00
2018-08-20T00:20:31.936Z,6.80
2018-08-20T00:22:59.296Z,6.57
2018-08-20T00:25:26.678Z,7.03
2018-08-20T00:27:54.038Z,7.80
2018-08-20T00:30:21.399Z,8.73
2018-08-20T00:32:49.230Z,5.83
2018-08-20T00:35:18.323Z,5.47
2018-08-20T00:37:48.237Z,5.33
2018-08-20T00:40:15.666Z,7.10
2018-08-20T00:42:43.040Z,5.90
2018-08-20T00:45:10.597Z,6.77
2018-08-20T00:47:38.090Z,6.63
2018-08-20T00:50:06.675Z,6.40
2018-08-20T00:52:34.072Z,7.23
2018-08-20T00:55:01.443Z,7.33
2018-08-20T00:57:28.808Z,7.77
2018-08-20T00:59:56.183Z,5.57
2018-08-20T01:02:24.456Z,7.00
2018-08-20T01:04:51.871Z,5.80
2018-08-20T01:07:19.239Z,6.27
2018-08-20T01:09:46.604Z,7.53
2018-08-20T01:12:13.951Z,8.23
2018-08-20T01:14:41.286Z,6.13
2018-08-20T01:17:08.637Z,7.17
2018-08-20T01:19:36.010Z,6.07
2018-08-20T01:22:03.369Z,6.80
2018-08-20T01:24:30.711Z,7.53
2018-08-20T01:26:58.282Z,6.67
2018-08-20T01:29:25.660Z,6.40
2018-08-20T01:31:53.011Z,6.53
2018-08-20T01:34:20.364Z,8.17
2018-08-20T01:36:47.711Z,7.47
2018-08-20T01:39:15.047Z,7.33
2018-08-20T01:41:42.395Z,6.33
2018-08-20T01:44:09.759Z,7.53
2018-08-20T01:46:37.118Z,5.63
2018-08-20T01:49:04.472Z,6.30
2018-08-20T01:51:31.820Z,6.33
2018-08-20T01:53:59.187Z,5.73
2018-08-20T01:56:26.540Z,6.57
2018-08-20T01:58:53.905Z,6.73
2018-08-20T02:01:21.244Z,5.97
2018-08-20T02:03:48.618Z,5.60
2018-08-20T02:06:15.951Z,6.67
2018-08-20T02:08:43.305Z,7.17
2018-08-20T02:11:10.672Z,5.87
2018-08-20T02:13:38.027Z,7.40
2018-08-20T02:16:05.821Z,5.50
2018-08-20T02:18:33.180Z,6.90
2018-08-20T02:21:00.612Z,6.07
2018-08-20T02:23:27.969Z,8.40
2018-08-20T02:25:55.339Z,5.37
2018-08-20T02:28:22.683Z,7.23
2018-08-20T02:30:50.052Z,6.80
2018-08-20T02:33:17.396Z,6.97
2018-08-20T02:35:44.748Z,6.97
2018-08-20T02:38:12.106Z,5.70
2018-08-20T02:40:39.461Z,6.20
2018-08-20T02:43:06.818Z,6.00
2018-08-20T02:45:34.169Z,8.60
2018-08-20T02:48:01.513Z,6.77
2018-08-20T02:50:28.901Z,7.00
2018-08-20T02:52:56.295Z,7.03
2018-08-20T02:55:23.641Z,7.23
2018-08-20T02:57:51.000Z,5.27
2018-08-20T03:00:18.408Z,6.07
2018-08-20T03:02:45.737Z,5.80
2018-08-20T03:05:13.120Z,5.83
2018-08-20T03:07:40.505Z,5.73
2018-08-20T03:10:09.692Z,5.77
2018-08-20T03:12:37.106Z,6.37
2018-08-20T03:15:05.531Z,5.87
2018-08-20T03:17:32.899Z,6.13
2018-08-20T03:20:00.282Z,6.43
2018-08-20T03:22:27.615Z,6.47
2018-08-20T03:24:54.934Z,5.73
2018-08-20T03:27:22.283Z,5.40
2018-08-20T03:29:49.644Z,5.20
2018-08-20T03:32:16.979Z,5.70
2018-08-20T03:34:44.403Z,4.90
2018-08-20T03:37:11.767Z,5.33
2018-08-20T03:39:39.134Z,4.80
2018-08-20T03:42:06.609Z,4.23
2018-08-20T03:44:33.967Z,5.37
2018-08-20T03:47:01.321Z,4.07
2018-08-20T03:49:28.671Z,4.20
2018-08-20T03:51:56.042Z,4.13
2018-08-20T03:54:23.437Z,3.30
2018-08-20T03:56:50.816Z,3.83
2018-08-20T03:59:30.621Z,3.90
2018-08-20T04:01:59.231Z,4.10
2018-08-20T04:04:27.032Z,3.50
2018-08-20T04:06:54.375Z,3.40
2018-08-20T04:09:21.769Z,3.40
2018-08-20T04:11:49.125Z,3.27
2018-08-20T04:14:16.489Z,3.00
2018-08-20T04:16:43.839Z,3.43
2018-08-20T04:19:11.216Z,2.90
2018-08-20T04:21:38.560Z,2.80
2018-08-20T04:24:05.983Z,2.97
2018-08-20T04:26:33.360Z,2.60
2018-08-20T04:29:00.951Z,2.40
2018-08-20T04:31:28.347Z,2.60
2018-08-20T04:33:55.713Z,2.73
2018-08-20T04:36:23.104Z,2.73
2018-08-20T04:38:50.443Z,2.10
2018-08-20T04:41:17.855Z,2.60
2018-08-20T04:43:45.203Z,2.10
2018-08-20T04:46:12.608Z,2.10
2018-08-20T04:48:39.980Z,2.47
2018-08-20T04:51:07.542Z,2.50
2018-08-20T04:53:34.696Z,2.10
2018-08-20T04:56:02.045Z,2.07
2018-08-20T04:58:29.392Z,2.30
2018-08-20T05:00:56.727Z,2.93
2018-08-20T05:03:24.067Z,2.30
2018-08-20T05:05:51.425Z,2.57
2018-08-20T05:08:18.796Z,2.60
2018-08-20T05:10:46.135Z,2.60
2018-08-20T05:13:13.543Z,2.27
2018-08-20T05:15:40.879Z,1.80
2018-08-20T05:18:08.264Z,2.13
2018-08-20T05:20:35.667Z,2.30
2018-08-20T05:23:03.016Z,2.33
2018-08-20T05:25:30.383Z,2.27
2018-08-20T05:27:57.714Z,2.00
2018-08-20T05:30:25.066Z,2.03
2018-08-20T05:32:52.630Z,2.33
2018-08-20T05:35:20.004Z,2.00
2018-08-20T05:37:47.378Z,2.07
2018-08-20T05:40:14.725Z,2.00
2018-08-20T05:42:42.071Z,2.00
2018-08-20T05:45:10.864Z,2.23
2018-08-20T05:47:38.412Z,2.33
2018-08-20T05:50:06.292Z,1.90
2018-08-20T05:52:33.664Z,1.90
2018-08-20T05:55:01.003Z,2.20
2018-08-20T05:57:28.352Z,1.60
2018-08-20T05:59:55.744Z,2.17
2018-08-20T06:02:23.156Z,2.57
2018-08-20T06:04:50.886Z,2.33
2018-08-20T06:07:18.264Z,1.97
2018-08-20T06:09:45.621Z,2.33
2018-08-20T06:12:13.256Z,2.07
2018-08-20T06:14:40.598Z,1.67
2018-08-20T06:17:07.967Z,1.60
2018-08-20T06:19:35.346Z,2.27
2018-08-20T06:22:02.726Z,1.83
2018-08-20T06:24:30.061Z,1.83
2018-08-20T06:26:57.428Z,1.60
2018-08-20T06:29:24.808Z,1.70
2018-08-20T06:31:52.252Z,1.87
2018-08-20T06:34:19.604Z,2.00
2018-08-20T06:36:46.971Z,1.70
2018-08-20T06:39:14.346Z,1.70
2018-08-20T06:41:41.724Z,1.60
2018-08-20T06:44:09.058Z,1.90
2018-08-20T06:46:36.895Z,1.70
2018-08-20T06:49:05.144Z,2.17
2018-08-20T06:51:32.477Z,1.87
2018-08-20T06:54:00.025Z,2.17
2018-08-20T06:56:27.367Z,2.07
2018-08-20T06:58:54.707Z,1.90
2018-08-20T07:01:22.043Z,2.00
2018-08-20T07:03:49.411Z,1.90
2018-08-20T07:06:16.828Z,2.50
2018-08-20T07:08:44.165Z,1.80
2018-08-20T07:11:11.528Z,1.60
2018-08-20T07:13:38.890Z,1.73
2018-08-20T07:16:07.386Z,2.03
2018-08-20T07:18:34.821Z,2.10
2018-08-20T07:21:02.163Z,1.70
2018-08-20T07:23:29.954Z,1.50
2018-08-20T07:25:57.254Z,1.40
2018-08-20T07:28:24.615Z,1.70
2018-08-20T07:30:51.993Z,1.53
2018-08-20T07:33:19.351Z,1.60
2018-08-20T07:35:46.763Z,1.77
2018-08-20T07:38:14.188Z,3.40
2018-08-20T07:40:41.563Z,3.87
2018-08-20T07:43:09.016Z,2.13
2018-08-20T07:45:36.385Z,2.03
2018-08-20T07:48:03.773Z,3.37
2018-08-20T07:50:31.115Z,2.37
2018-08-20T07:52:58.484Z,3.30
2018-08-20T07:55:25.868Z,2.10
2018-08-20T07:57:53.271Z,2.30
2018-08-20T08:00:20.749Z,2.10
2018-08-20T08:02:48.247Z,1.93
2018-08-20T08:05:15.645Z,2.23
2018-08-20T08:07:42.999Z,1.63
2018-08-20T08:10:12.360Z,2.17
2018-08-20T08:12:39.768Z,1.93
2018-08-20T08:15:08.404Z,2.17
2018-08-20T08:17:35.752Z,2.10
2018-08-20T08:20:03.755Z,1.60
2018-08-20T08:22:31.143Z,2.13
2018-08-20T08:24:58.569Z,2.53
2018-08-20T08:27:25.956Z,1.90
2018-08-20T08:29:53.413Z,2.20
2018-08-20T08:32:20.959Z,1.87
2018-08-20T08:34:48.326Z,1.83
2018-08-20T08:37:15.732Z,1.57
2018-08-20T08:39:43.127Z,2.20
2018-08-20T08:42:10.500Z,2.20
2018-08-20T08:44:37.894Z,2.23
2018-08-20T08:47:05.521Z,1.83
2018-08-20T08:49:32.876Z,2.47
2018-08-20T08:52:00.348Z,2.20
2018-08-20T08:54:27.695Z,2.33
2018-08-20T08:56:55.084Z,2.07
2018-08-20T08:59:22.433Z,2.23
2018-08-20T09:01:49.816Z,1.80
2018-08-20T09:04:17.226Z,1.73
2018-08-20T09:06:44.567Z,1.87
2018-08-20T09:09:11.924Z,2.07
2018-08-20T09:11:39.276Z,2.27
2018-08-20T09:14:06.651Z,1.97
2018-08-20T09:16:33.983Z,2.07
2018-08-20T09:19:01.364Z,2.53
2018-08-20T09:21:28.699Z,2.20
2018-08-20T09:23:56.084Z,1.70
2018-08-20T09:26:23.448Z,1.63
2018-08-20T09:28:50.788Z,1.60
2018-08-20T09:31:18.138Z,1.67
2018-08-20T09:33:45.488Z,2.10
2018-08-20T09:36:12.863Z,1.93
2018-08-20T09:38:40.244Z,1.50
2018-08-20T09:41:07.576Z,1.83
2018-08-20T09:43:34.946Z,1.40
2018-08-20T09:46:02.282Z,1.23
2018-08-20T09:48:30.095Z,1.30
2018-08-20T09:50:57.472Z,0.87
2018-08-20T09:53:24.899Z,1.00
2018-08-20T09:55:52.278Z,1.30
2018-08-20T09:58:19.628Z,0.80
2018-08-20T10:00:47.006Z,0.90
2018-08-20T10:03:14.387Z,1.30
2018-08-20T10:05:41.721Z,1.00
2018-08-20T10:08:09.265Z,0.83
2018-08-20T10:10:36.635Z,0.90
2018-08-20T10:13:04.032Z,1.00
2018-08-20T10:15:31.364Z,0.70
2018-08-20T10:17:58.717Z,0.77
2018-08-20T10:20:26.084Z,1.07
2018-08-20T10:22:53.475Z,1.30
2018-08-20T10:25:20.828Z,0.60
2018-08-20T10:27:48.187Z,1.20
2018-08-20T10:30:15.544Z,1.40
2018-08-20T10:32:42.911Z,1.10
2018-08-20T10:35:10.283Z,1.03
2018-08-20T10:37:37.676Z,0.60
2018-08-20T10:40:06.251Z,1.10
2018-08-20T10:42:33.610Z,0.90
2018-08-20T10:45:06.754Z,1.03
2018-08-20T10:47:34.099Z,0.60
2018-08-20T10:50:01.525Z,0.90
2018-08-20T10:52:28.804Z,0.50
2018-08-20T10:54:56.185Z,0.80
2018-08-20T10:57:23.556Z,0.93
2018-08-20T10:59:50.896Z,0.80
2018-08-20T11:02:18.288Z,0.87
2018-08-20T11:04:45.651Z,0.67
2018-08-20T11:07:13.039Z,0.93
2018-08-20T11:09:40.385Z,0.87
2018-08-20T11:12:07.761Z,0.60
2018-08-20T11:14:35.122Z,0.70
2018-08-20T11:17:02.495Z,0.87
2018-08-20T11:19:29.890Z,0.80
2018-08-20T11:21:57.248Z,0.80
2018-08-20T11:24:25.424Z,0.53
2018-08-20T11:26:52.769Z,0.90
2018-08-20T11:29:20.128Z,0.90
2018-08-20T11:31:47.543Z,1.40
2018-08-20T11:34:14.954Z,1.20
2018-08-20T11:36:42.368Z,1.30
2018-08-20T11:39:09.656Z,0.97
2018-08-20T11:41:37.142Z,1.00
2018-08-20T11:44:04.500Z,1.07
2018-08-20T11:46:32.107Z,1.30
2018-08-20T11:48:59.703Z,1.00
2018-08-20T11:51:27.078Z,1.03
2018-08-20T11:53:54.468Z,0.87
2018-08-20T11:56:22.480Z,1.40
2018-08-20T11:58:49.851Z,0.93
2018-08-20T12:01:17.199Z,0.80
2018-08-20T12:03:48.274Z,0.87
2018-08-20T12:06:15.652Z,1.20
2018-08-20T12:08:43.008Z,0.90
2018-08-20T12:11:10.437Z,0.80
2018-08-20T12:13:37.804Z,0.70
2018-08-20T12:16:05.339Z,1.03
2018-08-20T12:18:32.705Z,0.97
2018-08-20T12:21:00.108Z,0.80
2018-08-20T12:23:27.441Z,1.00
2018-08-20T12:25:54.796Z,1.10
2018-08-20T12:28:22.171Z,0.98
2018-08-20T12:30:49.653Z,1.10
2018-08-20T12:33:17.042Z,0.70
2018-08-20T12:35:44.415Z,1.10
2018-08-20T12:38:11.774Z,0.87
2018-08-20T12:40:39.357Z,0.80
2018-08-20T12:43:06.717Z,0.80
2018-08-20T12:45:34.083Z,1.00
2018-08-20T12:48:01.451Z,0.70
2018-08-20T12:50:28.807Z,0.73
2018-08-20T12:52:56.224Z,0.90
2018-08-20T12:55:23.594Z,0.67
2018-08-20T12:57:50.961Z,0.83
2018-08-20T13:00:18.329Z,0.97
2018-08-20T13:02:45.672Z,0.80
2018-08-20T13:05:13.033Z,1.03
2018-08-20T13:07:40.639Z,0.63
2018-08-20T13:10:08.082Z,0.50
2018-08-20T13:12:36.419Z,0.80
2018-08-20T13:15:03.932Z,0.80
2018-08-20T13:17:31.316Z,0.80
2018-08-20T13:19:58.672Z,0.83
2018-08-20T13:22:26.050Z,0.70
2018-08-20T13:24:53.427Z,0.90
2018-08-20T13:27:20.771Z,0.83
2018-08-20T13:29:48.129Z,0.90
2018-08-20T13:32:15.503Z,0.73
2018-08-20T13:34:42.839Z,0.60
2018-08-20T13:37:10.185Z,0.70
2018-08-20T13:39:37.509Z,0.70
2018-08-20T13:42:05.007Z,0.73
2018-08-20T13:44:32.384Z,0.93
2018-08-20T13:46:59.768Z,0.90
2018-08-20T13:49:27.133Z,0.60
2018-08-20T13:51:54.493Z,1.40
2018-08-20T13:54:21.875Z,0.87
2018-08-20T13:56:49.230Z,0.80
2018-08-20T13:59:16.620Z,0.70
2018-08-20T14:01:43.987Z,0.60
2018-08-20T14:04:11.376Z,0.83
2018-08-20T14:06:38.722Z,1.03
2018-08-20T14:09:07.248Z,0.87
2018-08-20T14:11:34.627Z,1.10
2018-08-20T14:14:01.982Z,0.70
2018-08-20T14:16:29.467Z,0.60
2018-08-20T14:18:56.884Z,1.20
2018-08-20T14:21:24.309Z,0.80
2018-08-20T14:23:51.638Z,0.60
2018-08-20T14:26:18.997Z,0.60
2018-08-20T14:28:46.348Z,0.60
2018-08-20T14:31:13.684Z,0.70
2018-08-20T14:33:41.039Z,0.60
2018-08-20T14:36:08.992Z,0.70
2018-08-20T14:38:36.455Z,0.50
2018-08-20T14:41:04.422Z,0.77
2018-08-20T14:43:31.800Z,0.70
2018-08-20T14:46:04.762Z,0.80
2018-08-20T14:48:32.406Z,0.87
2018-08-20T14:50:59.991Z,1.20
2018-08-20T14:53:27.410Z,0.80
2018-08-20T14:55:54.927Z,0.90
2018-08-20T14:58:22.504Z,0.80
2018-08-20T15:00:49.886Z,1.00
2018-08-20T15:03:17.219Z,0.50
2018-08-20T15:05:44.606Z,0.60
2018-08-20T15:08:12.007Z,1.43
2018-08-20T15:10:39.368Z,0.60
2018-08-20T15:13:06.731Z,0.93
2018-08-20T15:15:34.210Z,1.13
2018-08-20T15:18:01.473Z,0.83
2018-08-20T15:20:28.836Z,0.80
2018-08-20T15:22:56.220Z,0.73
2018-08-20T15:25:23.589Z,0.93
2018-08-20T15:27:50.964Z,1.00
2018-08-20T15:30:18.344Z,0.80
2018-08-20T15:32:45.774Z,0.77
2018-08-20T15:35:13.192Z,1.40
2018-08-20T15:37:40.583Z,0.90
2018-08-20T15:40:08.018Z,1.57
2018-08-20T15:42:35.572Z,0.67
2018-08-20T15:45:02.976Z,2.00
2018-08-20T15:47:30.348Z,1.20
2018-08-20T15:49:57.709Z,0.90
2018-08-20T15:52:25.080Z,0.83
2018-08-20T15:54:52.623Z,1.10
2018-08-20T15:57:20.039Z,0.80
2018-08-20T15:59:47.412Z,0.90
2018-08-20T16:02:14.937Z,0.80
2018-08-20T16:04:42.272Z,0.80
2018-08-20T16:07:09.694Z,1.67
2018-08-20T16:09:37.083Z,1.33
2018-08-20T16:12:05.167Z,2.43
2018-08-20T16:14:32.592Z,0.83
2018-08-20T16:16:59.946Z,0.80
2018-08-20T16:19:27.363Z,1.10
2018-08-20T16:21:54.751Z,3.17
2018-08-20T16:24:22.130Z,1.33
2018-08-20T16:26:49.562Z,1.70
2018-08-20T16:29:16.900Z,2.50
2018-08-20T16:31:44.296Z,1.83
2018-08-20T16:34:11.668Z,2.27
2018-08-20T16:36:39.141Z,3.30
2018-08-20T16:39:08.744Z,1.87
2018-08-20T16:41:36.181Z,2.00
2018-08-20T16:44:03.603Z,0.87
2018-08-20T16:46:31.092Z,1.03
2018-08-20T16:48:58.492Z,0.90
2018-08-20T16:51:25.877Z,1.10
2018-08-20T16:53:53.246Z,1.30
2018-08-20T16:56:20.647Z,1.10
2018-08-20T16:58:48.056Z,2.00
2018-08-20T17:01:17.322Z,2.40
2018-08-20T17:03:44.775Z,2.43
2018-08-20T17:06:12.139Z,1.83
2018-08-20T17:08:41.779Z,1.37
2018-08-20T17:11:09.976Z,1.57
2018-08-20T17:13:37.384Z,0.90
2018-08-20T17:16:05.694Z,1.13
2018-08-20T17:18:33.035Z,1.33
2018-08-20T17:21:00.424Z,0.90
2018-08-20T17:23:27.765Z,1.03
2018-08-20T17:25:56.427Z,1.10
2018-08-20T17:28:25.953Z,1.00
2018-08-20T17:30:54.213Z,1.30
2018-08-20T17:33:21.634Z,1.27
2018-08-20T17:35:49.056Z,1.20
2018-08-20T17:38:16.418Z,1.27
2018-08-20T17:40:43.817Z,1.27
2018-08-20T17:43:11.248Z,1.20
2018-08-20T17:45:38.649Z,1.20
2018-08-20T17:48:11.691Z,1.57
2018-08-20T17:50:40.315Z,1.70
2018-08-20T17:53:07.693Z,1.87
2018-08-20T17:55:35.092Z,2.10
2018-08-20T17:58:02.514Z,1.60
2018-08-20T18:00:38.219Z,2.23
2018-08-20T18:03:08.249Z,1.77
2018-08-20T18:05:35.657Z,1.63
2018-08-20T18:08:03.049Z,1.50
2018-08-20T18:10:30.457Z,1.70
2018-08-20T18:12:57.887Z,1.07
2018-08-20T18:15:25.301Z,2.00
2018-08-20T18:17:53.507Z,2.30
2018-08-20T18:20:20.936Z,3.80
2018-08-20T18:22:48.315Z,4.47
2018-08-20T18:25:15.862Z,4.40
2018-08-20T18:27:44.276Z,1.23
2018-08-20T18:30:12.930Z,2.80
2018-08-20T18:32:40.324Z,1.60
2018-08-20T18:35:08.034Z,3.67
2018-08-20T18:37:47.230Z,2.10
2018-08-20T18:40:14.805Z,2.17
2018-08-20T18:42:46.404Z,2.70
2018-08-20T18:45:13.843Z,2.60
2018-08-20T18:47:41.343Z,2.20
2018-08-20T18:50:09.650Z,1.83
2018-08-20T18:52:37.013Z,2.90
2018-08-20T18:55:04.417Z,2.17
2018-08-20T18:57:33.185Z,2.17
2018-08-20T19:00:02.558Z,1.80
2018-08-20T19:03:03.536Z,2.30
2018-08-20T19:05:38.561Z,2.00
2018-08-20T19:08:09.264Z,1.90
2018-08-20T19:10:36.718Z,2.00
2018-08-20T19:13:04.156Z,2.07
2018-08-20T19:15:42.818Z,1.90
2018-08-20T19:18:12.401Z,2.50
2018-08-20T19:20:40.398Z,2.50
2018-08-20T19:23:07.835Z,2.47
2018-08-20T19:25:35.240Z,1.70
2018-08-20T19:28:07.567Z,1.90
2018-08-20T19:30:34.950Z,2.30
2018-08-20T19:33:03.663Z,1.80
2018-08-20T19:35:31.063Z,2.00
2018-08-20T19:37:58.451Z,2.00
2018-08-20T19:40:25.799Z,2.10
2018-08-20T19:42:53.430Z,1.70
2018-08-20T19:45:23.218Z,2.10
2018-08-20T19:47:50.815Z,2.03
2018-08-20T19:50:18.230Z,1.77
2018-08-20T19:52:45.639Z,2.30
2018-08-20T19:55:13.081Z,1.80
2018-08-20T19:57:40.495Z,1.93
2018-08-20T20:00:09.461Z,1.67
2018-08-20T20:02:37.573Z,2.60
2018-08-20T20:05:06.007Z,1.70
2018-08-20T20:07:34.968Z,2.00
2018-08-20T20:10:07.740Z,2.30
2018-08-20T20:12:39.718Z,3.13
2018-08-20T20:15:07.093Z,2.30
2018-08-20T20:17:34.527Z,2.30
2018-08-20T20:20:01.978Z,3.17
2018-08-20T20:22:29.364Z,2.30
2018-08-20T20:24:56.731Z,2.13
2018-08-20T20:27:24.113Z,2.80
2018-08-20T20:29:51.498Z,2.40
2018-08-20T20:32:18.871Z,3.10
2018-08-20T20:34:46.245Z,2.67
2018-08-20T20:37:13.599Z,2.70
2018-08-20T20:39:45.531Z,2.60
2018-08-20T20:42:12.904Z,2.47
2018-08-20T20:44:40.261Z,2.90
2018-08-20T20:47:07.652Z,3.07
2018-08-20T20:49:34.990Z,2.93
2018-08-20T20:52:02.332Z,3.03
2018-08-20T20:54:29.723Z,3.13
2018-08-20T20:56:57.070Z,2.87
2018-08-20T20:59:24.472Z,2.07
2018-08-20T21:01:51.831Z,2.57
2018-08-20T21:04:19.216Z,2.30
2018-08-20T21:06:46.591Z,3.40
2018-08-20T21:09:14.065Z,2.87
2018-08-20T21:11:41.416Z,3.07
2018-08-20T21:14:08.907Z,2.30
2018-08-20T21:16:36.325Z,2.53
2018-08-20T21:19:04.601Z,2.93
2018-08-20T21:21:32.495Z,3.20
2018-08-20T21:23:59.860Z,3.13
2018-08-20T21:26:27.256Z,3.50
2018-08-20T21:28:55.253Z,3.60
2018-08-20T21:31:23.787Z,3.87
2018-08-20T21:33:54.175Z,5.80
2018-08-20T21:36:21.532Z,5.13
2018-08-20T21:38:48.875Z,6.50
2018-08-20T21:41:16.325Z,6.13
2018-08-20T21:43:45.237Z,6.40
2018-08-20T21:46:12.975Z,6.37
2018-08-20T21:48:40.669Z,6.63
2018-08-20T21:51:11.156Z,5.70
2018-08-20T21:53:39.019Z,6.83
2018-08-20T21:56:08.555Z,6.37
2018-08-20T21:58:36.155Z,5.57
2018-08-20T22:01:04.040Z,6.80
2018-08-20T22:03:31.269Z,6.73
2018-08-20T22:05:58.616Z,7.53
2018-08-20T22:08:26.022Z,7.00
2018-08-20T22:10:53.359Z,7.90
2018-08-20T22:13:20.722Z,8.87
2018-08-20T22:16:02.935Z,7.73
2018-08-20T22:18:34.869Z,7.80
2018-08-20T22:21:02.299Z,7.27
2018-08-20T22:23:39.084Z,8.07
2018-08-20T22:25:57.022Z,8.77
2018-08-20T22:28:24.507Z,8.03
2018-08-20T22:30:55.178Z,8.27
2018-08-20T22:33:22.841Z,8.53
2018-08-20T22:35:50.221Z,9.23
2018-08-20T22:38:17.583Z,9.67
2018-08-20T22:40:47.056Z,6.43
2018-08-20T22:43:14.431Z,8.53
2018-08-20T22:45:41.781Z,7.47
2018-08-20T22:48:09.919Z,7.73
2018-08-20T22:50:37.264Z,8.03
2018-08-20T22:53:05.152Z,8.10
2018-08-20T22:55:32.480Z,8.10
2018-08-20T22:58:07.231Z,8.57
2018-08-20T23:00:34.735Z,7.30
2018-08-20T23:03:02.211Z,7.90
2018-08-20T23:05:30.900Z,7.47
2018-08-20T23:08:10.389Z,8.60
2018-08-20T23:10:38.736Z,8.27
2018-08-20T23:13:06.329Z,8.70
2018-08-20T23:15:33.732Z,7.10
2018-08-20T23:18:01.082Z,7.87
2018-08-20T23:20:30.065Z,6.20
2018-08-20T23:22:57.453Z,7.37
2018-08-20T23:25:24.900Z,6.97
2018-08-20T23:27:52.261Z,7.47
2018-08-20T23:30:19.628Z,6.97
2018-08-20T23:32:46.992Z,7.83
2018-08-20T23:35:14.377Z,7.37
2018-08-20T23:37:41.769Z,7.00
2018-08-20T23:40:09.304Z,7.87
2018-08-20T23:42:36.680Z,7.43
2018-08-20T23:45:04.740Z,7.37
2018-08-20T23:47:32.105Z,7.63
2018-08-20T23:49:59.485Z,7.00
2018-08-20T23:52:26.854Z,8.07
2018-08-20T23:54:54.344Z,7.50
2018-08-20T23:57:21.703Z,7.87
2018-08-20T23:59:49.052Z,7.80
